sensor_id;sensor_type;location;lat;lon;timestamp;pressure;altitude;pressure_sealevel;temperature;humidity
1926;BME280;964;42.606;23.588;2023-02-10T00:01:34;96279.47;;;13.78;21.22
1926;BME280;964;42.606;23.588;2023-02-10T00:04:01;96283.97;;;13.15;21.72
1926;BME280;964;42.606;23.588;2023-02-10T00:06:28;96279.66;;;13.32;21.25
1926;BME280;964;42.606;23.588;2023-02-10T00:08:57;96287.56;;;13.19;21.10
1926;BME280;964;42.606;23.588;2023-02-10T00:11:24;96281.59;;;13.22;21.45
1926;BME280;964;42.606;23.588;2023-02-10T00:14:07;96283.41;;;13.31;20.50
1926;BME280;964;42.606;23.588;2023-02-10T00:16:34;96281.72;;;13.88;20.15
1926;BME280;964;42.606;23.588;2023-02-10T00:19:00;96292.22;;;12.64;21.86
1926;BME280;964;42.606;23.588;2023-02-10T00:21:27;96285.00;;;12.94;21.05
1926;BME280;964;42.606;23.588;2023-02-10T00:23:53;96288.38;;;12.82;21.64
1926;BME280;964;42.606;23.588;2023-02-10T00:26:20;96282.72;;;13.21;21.04
1926;BME280;964;42.606;23.588;2023-02-10T00:28:47;96291.38;;;12.25;22.08
1926;BME280;964;42.606;23.588;2023-02-10T00:31:15;96279.06;;;12.59;21.95
1926;BME280;964;42.606;23.588;2023-02-10T00:33:44;96274.22;;;12.90;21.86
1926;BME280;964;42.606;23.588;2023-02-10T00:36:12;96280.81;;;11.74;22.08
1926;BME280;964;42.606;23.588;2023-02-10T00:38:40;96284.19;;;11.14;23.20
1926;BME280;964;42.606;23.588;2023-02-10T00:41:09;96284.44;;;11.04;22.90
1926;BME280;964;42.606;23.588;2023-02-10T00:43:37;96276.59;;;11.90;22.02
1926;BME280;964;42.606;23.588;2023-02-10T00:46:04;96275.94;;;11.67;22.71
1926;BME280;964;42.606;23.588;2023-02-10T00:48:32;96282.75;;;11.00;22.82
1926;BME280;964;42.606;23.588;2023-02-10T00:50:59;96268.28;;;11.66;22.59
1926;BME280;964;42.606;23.588;2023-02-10T00:53:26;96262.59;;;12.74;21.80
1926;BME280;964;42.606;23.588;2023-02-10T00:55:53;96250.06;;;13.54;20.27
1926;BME280;964;42.606;23.588;2023-02-10T00:58:20;96249.16;;;13.29;20.00
1926;BME280;964;42.606;23.588;2023-02-10T01:00:47;96262.06;;;11.79;21.74
1926;BME280;964;42.606;23.588;2023-02-10T01:03:14;96253.31;;;11.78;22.30
1926;BME280;964;42.606;23.588;2023-02-10T01:05:42;96258.59;;;12.04;22.40
1926;BME280;964;42.606;23.588;2023-02-10T01:08:10;96252.94;;;12.06;21.92
1926;BME280;964;42.606;23.588;2023-02-10T01:10:36;96249.47;;;12.22;21.94
1926;BME280;964;42.606;23.588;2023-02-10T01:13:04;96251.66;;;12.20;21.41
1926;BME280;964;42.606;23.588;2023-02-10T01:15:32;96247.38;;;11.90;21.65
1926;BME280;964;42.606;23.588;2023-02-10T01:17:59;96243.81;;;12.33;21.16
1926;BME280;964;42.606;23.588;2023-02-10T01:20:26;96241.94;;;12.42;21.45
1926;BME280;964;42.606;23.588;2023-02-10T01:22:55;96243.63;;;11.57;22.47
1926;BME280;964;42.606;23.588;2023-02-10T01:25:21;96244.06;;;11.07;22.49
1926;BME280;964;42.606;23.588;2023-02-10T01:27:48;96242.19;;;11.16;22.13
1926;BME280;964;42.606;23.588;2023-02-10T01:30:14;96245.31;;;11.27;22.39
1926;BME280;964;42.606;23.588;2023-02-10T01:32:41;96223.84;;;12.26;21.62
1926;BME280;964;42.606;23.588;2023-02-10T01:35:08;96229.88;;;11.20;22.60
1926;BME280;964;42.606;23.588;2023-02-10T01:37:35;96224.91;;;12.34;21.03
1926;BME280;964;42.606;23.588;2023-02-10T01:40:05;96223.25;;;12.12;21.71
1926;BME280;964;42.606;23.588;2023-02-10T01:42:32;96231.44;;;11.56;22.48
1926;BME280;964;42.606;23.588;2023-02-10T01:45:22;96230.31;;;11.05;22.75
1926;BME280;964;42.606;23.588;2023-02-10T01:47:52;96223.19;;;12.29;21.59
1926;BME280;964;42.606;23.588;2023-02-10T01:50:21;96225.19;;;11.52;22.25
1926;BME280;964;42.606;23.588;2023-02-10T01:52:49;96214.28;;;11.79;21.98
1926;BME280;964;42.606;23.588;2023-02-10T01:55:20;96209.34;;;12.07;21.75
1926;BME280;964;42.606;23.588;2023-02-10T01:57:49;96203.53;;;12.13;21.85
1926;BME280;964;42.606;23.588;2023-02-10T02:00:20;96208.69;;;12.18;21.46
1926;BME280;964;42.606;23.588;2023-02-10T02:02:46;96209.84;;;12.00;22.35
1926;BME280;964;42.606;23.588;2023-02-10T02:05:29;96214.41;;;11.05;23.16
1926;BME280;964;42.606;23.588;2023-02-10T02:07:59;96202.66;;;11.92;22.56
1926;BME280;964;42.606;23.588;2023-02-10T02:10:37;96205.31;;;12.39;21.79
1926;BME280;964;42.606;23.588;2023-02-10T02:13:11;96197.19;;;12.44;22.00
1926;BME280;964;42.606;23.588;2023-02-10T02:15:46;96191.78;;;12.61;21.63
1926;BME280;964;42.606;23.588;2023-02-10T02:18:21;96189.00;;;12.19;22.09
1926;BME280;964;42.606;23.588;2023-02-10T02:24:05;96185.56;;;12.19;21.10
1926;BME280;964;42.606;23.588;2023-02-10T02:30:01;96176.22;;;12.13;21.10
1926;BME280;964;42.606;23.588;2023-02-10T02:32:33;96167.19;;;12.05;21.89
1926;BME280;964;42.606;23.588;2023-02-10T02:35:06;96172.13;;;12.15;21.34
1926;BME280;964;42.606;23.588;2023-02-10T02:37:36;96168.75;;;12.36;21.50
1926;BME280;964;42.606;23.588;2023-02-10T02:40:04;96164.44;;;12.60;20.83
1926;BME280;964;42.606;23.588;2023-02-10T02:42:32;96163.38;;;12.53;20.89
1926;BME280;964;42.606;23.588;2023-02-10T02:45:02;96162.19;;;12.42;21.02
1926;BME280;964;42.606;23.588;2023-02-10T02:47:47;96162.47;;;12.49;21.38
1926;BME280;964;42.606;23.588;2023-02-10T02:50:23;96160.13;;;12.09;21.55
1926;BME280;964;42.606;23.588;2023-02-10T02:53:04;96159.53;;;12.71;20.73
1926;BME280;964;42.606;23.588;2023-02-10T02:55:40;96152.16;;;12.39;21.25
1926;BME280;964;42.606;23.588;2023-02-10T02:58:13;96151.84;;;12.69;20.68
1926;BME280;964;42.606;23.588;2023-02-10T03:00:43;96156.59;;;12.64;20.57
1926;BME280;964;42.606;23.588;2023-02-10T03:03:12;96157.25;;;12.23;21.55
1926;BME280;964;42.606;23.588;2023-02-10T03:05:40;96157.56;;;12.80;21.45
1926;BME280;964;42.606;23.588;2023-02-10T03:08:07;96153.16;;;12.63;21.09
1926;BME280;964;42.606;23.588;2023-02-10T03:10:33;96154.72;;;12.85;21.42
1926;BME280;964;42.606;23.588;2023-02-10T03:13:00;96157.38;;;12.85;21.17
1926;BME280;964;42.606;23.588;2023-02-10T03:15:27;96158.00;;;13.11;20.72
1926;BME280;964;42.606;23.588;2023-02-10T03:17:56;96164.97;;;12.95;20.62
1926;BME280;964;42.606;23.588;2023-02-10T03:20:24;96163.28;;;12.91;20.81
1926;BME280;964;42.606;23.588;2023-02-10T03:22:50;96165.84;;;12.58;20.79
1926;BME280;964;42.606;23.588;2023-02-10T03:25:17;96169.34;;;12.12;21.29
1926;BME280;964;42.606;23.588;2023-02-10T03:27:44;96165.22;;;12.23;20.91
1926;BME280;964;42.606;23.588;2023-02-10T03:30:11;96165.13;;;12.02;21.20
1926;BME280;964;42.606;23.588;2023-02-10T03:32:37;96164.81;;;12.12;21.55
1926;BME280;964;42.606;23.588;2023-02-10T03:35:05;96166.50;;;11.45;22.01
1926;BME280;964;42.606;23.588;2023-02-10T03:37:33;96161.88;;;12.05;21.33
1926;BME280;964;42.606;23.588;2023-02-10T03:39:59;96157.28;;;12.14;21.51
1926;BME280;964;42.606;23.588;2023-02-10T03:42:26;96156.72;;;12.00;21.42
1926;BME280;964;42.606;23.588;2023-02-10T03:44:53;96160.53;;;11.82;21.93
1926;BME280;964;42.606;23.588;2023-02-10T03:47:19;96155.56;;;12.48;20.57
1926;BME280;964;42.606;23.588;2023-02-10T03:49:46;96162.97;;;12.04;21.22
1926;BME280;964;42.606;23.588;2023-02-10T03:52:13;96159.91;;;11.68;21.44
1926;BME280;964;42.606;23.588;2023-02-10T03:54:41;96173.38;;;11.28;21.65
1926;BME280;964;42.606;23.588;2023-02-10T03:57:07;96167.38;;;11.66;21.82
1926;BME280;964;42.606;23.588;2023-02-10T03:59:34;96160.84;;;11.63;22.23
1926;BME280;964;42.606;23.588;2023-02-10T04:02:01;96166.34;;;11.15;22.53
1926;BME280;964;42.606;23.588;2023-02-10T04:04:28;96168.06;;;11.46;21.81
1926;BME280;964;42.606;23.588;2023-02-10T04:06:55;96168.53;;;11.30;22.64
1926;BME280;964;42.606;23.588;2023-02-10T04:09:22;96172.44;;;11.24;22.64
1926;BME280;964;42.606;23.588;2023-02-10T04:11:50;96150.53;;;11.79;21.79
1926;BME280;964;42.606;23.588;2023-02-10T04:14:17;96158.53;;;11.19;22.26
1926;BME280;964;42.606;23.588;2023-02-10T04:16:44;96153.41;;;11.14;22.65
1926;BME280;964;42.606;23.588;2023-02-10T04:19:10;96149.47;;;11.37;22.51
1926;BME280;964;42.606;23.588;2023-02-10T04:21:37;96152.56;;;11.65;21.93
1926;BME280;964;42.606;23.588;2023-02-10T04:24:04;96138.78;;;11.89;21.55
1926;BME280;964;42.606;23.588;2023-02-10T04:26:31;96140.78;;;12.00;21.72
1926;BME280;964;42.606;23.588;2023-02-10T04:28:59;96148.78;;;12.59;20.83
1926;BME280;964;42.606;23.588;2023-02-10T04:31:25;96146.22;;;12.42;20.52
1926;BME280;964;42.606;23.588;2023-02-10T04:33:52;96140.06;;;12.20;20.82
1926;BME280;964;42.606;23.588;2023-02-10T04:36:19;96160.09;;;11.46;21.76
1926;BME280;964;42.606;23.588;2023-02-10T04:38:46;96161.81;;;10.73;22.46
1926;BME280;964;42.606;23.588;2023-02-10T04:41:12;96163.38;;;10.17;23.33
1926;BME280;964;42.606;23.588;2023-02-10T04:43:39;96164.97;;;10.36;22.94
1926;BME280;964;42.606;23.588;2023-02-10T04:46:07;96164.31;;;10.95;22.17
1926;BME280;964;42.606;23.588;2023-02-10T04:48:34;96164.31;;;10.78;22.23
1926;BME280;964;42.606;23.588;2023-02-10T04:51:06;96170.09;;;10.23;22.98
1926;BME280;964;42.606;23.588;2023-02-10T04:53:33;96180.78;;;10.58;22.23
1926;BME280;964;42.606;23.588;2023-02-10T04:55:59;96176.78;;;10.86;22.29
1926;BME280;964;42.606;23.588;2023-02-10T04:58:26;96175.16;;;10.11;22.61
1926;BME280;964;42.606;23.588;2023-02-10T05:00:54;96177.47;;;10.44;23.04
1926;BME280;964;42.606;23.588;2023-02-10T05:03:22;96176.66;;;10.91;22.63
1926;BME280;964;42.606;23.588;2023-02-10T05:05:49;96170.88;;;11.23;22.12
1926;BME280;964;42.606;23.588;2023-02-10T05:08:16;96178.97;;;10.67;22.67
1926;BME280;964;42.606;23.588;2023-02-10T05:10:46;96182.09;;;9.99;23.77
1926;BME280;964;42.606;23.588;2023-02-10T05:13:12;96189.81;;;10.57;23.13
1926;BME280;964;42.606;23.588;2023-02-10T05:15:39;96180.38;;;10.81;22.31
1926;BME280;964;42.606;23.588;2023-02-10T05:18:06;96196.63;;;10.01;22.87
1926;BME280;964;42.606;23.588;2023-02-10T05:20:34;96193.19;;;10.09;23.93
1926;BME280;964;42.606;23.588;2023-02-10T05:23:01;96189.75;;;11.05;22.57
1926;BME280;964;42.606;23.588;2023-02-10T05:25:27;96196.47;;;11.19;22.33
1926;BME280;964;42.606;23.588;2023-02-10T05:27:54;96201.91;;;10.89;22.38
1926;BME280;964;42.606;23.588;2023-02-10T05:30:20;96200.16;;;10.19;23.05
1926;BME280;964;42.606;23.588;2023-02-10T05:32:47;96212.00;;;9.99;22.80
1926;BME280;964;42.606;23.588;2023-02-10T05:35:14;96211.19;;;10.60;22.93
1926;BME280;964;42.606;23.588;2023-02-10T05:37:42;96218.22;;;10.65;22.53
1926;BME280;964;42.606;23.588;2023-02-10T05:40:10;96227.03;;;10.12;22.77
1926;BME280;964;42.606;23.588;2023-02-10T05:42:36;96225.31;;;10.08;23.10
1926;BME280;964;42.606;23.588;2023-02-10T05:45:03;96228.53;;;10.66;22.33
1926;BME280;964;42.606;23.588;2023-02-10T05:47:30;96229.69;;;10.43;22.47
1926;BME280;964;42.606;23.588;2023-02-10T05:49:57;96232.50;;;10.47;22.62
1926;BME280;964;42.606;23.588;2023-02-10T05:55:47;96224.06;;;10.93;22.59
1926;BME280;964;42.606;23.588;2023-02-10T05:58:13;96233.63;;;11.19;22.22
1926;BME280;964;42.606;23.588;2023-02-10T06:00:40;96228.94;;;11.33;22.21
1926;BME280;964;42.606;23.588;2023-02-10T06:03:07;96230.81;;;11.33;22.30
1926;BME280;964;42.606;23.588;2023-02-10T06:05:33;96224.56;;;11.55;21.95
1926;BME280;964;42.606;23.588;2023-02-10T06:08:00;96219.00;;;13.16;22.26
1926;BME280;964;42.606;23.588;2023-02-10T06:10:27;96211.72;;;14.81;19.55
1926;BME280;964;42.606;23.588;2023-02-10T06:12:55;96207.13;;;15.46;18.82
1926;BME280;964;42.606;23.588;2023-02-10T06:15:21;96213.56;;;16.12;18.25
1926;BME280;964;42.606;23.588;2023-02-10T06:17:48;96225.72;;;16.26;18.08
1926;BME280;964;42.606;23.588;2023-02-10T06:20:15;96226.84;;;16.09;18.35
1926;BME280;964;42.606;23.588;2023-02-10T06:22:41;96221.69;;;17.83;17.45
1926;BME280;964;42.606;23.588;2023-02-10T06:25:08;96209.88;;;19.54;16.90
1926;BME280;964;42.606;23.588;2023-02-10T06:27:35;96202.50;;;21.06;15.32
1926;BME280;964;42.606;23.588;2023-02-10T06:30:04;96203.03;;;21.29;15.09
1926;BME280;964;42.606;23.588;2023-02-10T06:32:30;96200.38;;;22.58;13.71
1926;BME280;964;42.606;23.588;2023-02-10T06:34:57;96198.38;;;23.36;13.98
1926;BME280;964;42.606;23.588;2023-02-10T06:37:24;96201.25;;;24.60;12.68
1926;BME280;964;42.606;23.588;2023-02-10T06:39:50;96197.56;;;25.29;12.31
1926;BME280;964;42.606;23.588;2023-02-10T06:42:17;96198.56;;;26.10;12.18
1926;BME280;964;42.606;23.588;2023-02-10T06:44:44;96194.81;;;26.80;11.73
1926;BME280;964;42.606;23.588;2023-02-10T06:47:12;96198.22;;;26.61;11.87
1926;BME280;964;42.606;23.588;2023-02-10T06:49:38;96204.38;;;26.12;12.07
1926;BME280;964;42.606;23.588;2023-02-10T06:52:05;96207.63;;;26.00;11.75
1926;BME280;964;42.606;23.588;2023-02-10T06:54:32;96204.53;;;27.05;11.39
1926;BME280;964;42.606;23.588;2023-02-10T06:56:58;96216.03;;;26.09;11.83
1926;BME280;964;42.606;23.588;2023-02-10T06:59:25;96203.53;;;28.37;11.06
1926;BME280;964;42.606;23.588;2023-02-10T07:01:52;96202.75;;;28.36;11.16
1926;BME280;964;42.606;23.588;2023-02-10T07:04:26;96207.34;;;28.39;10.92
1926;BME280;964;42.606;23.588;2023-02-10T07:06:53;96202.38;;;27.98;11.18
1926;BME280;964;42.606;23.588;2023-02-10T07:09:20;96210.16;;;28.19;11.10
1926;BME280;964;42.606;23.588;2023-02-10T07:11:47;96201.00;;;29.10;10.80
1926;BME280;964;42.606;23.588;2023-02-10T07:14:14;96209.75;;;29.34;10.79
1926;BME280;964;42.606;23.588;2023-02-10T07:16:40;96200.56;;;28.63;10.92
1926;BME280;964;42.606;23.588;2023-02-10T07:19:07;96203.09;;;29.19;10.80
1926;BME280;964;42.606;23.588;2023-02-10T07:21:35;96189.50;;;29.03;10.82
1926;BME280;964;42.606;23.588;2023-02-10T07:24:03;96192.97;;;30.18;10.46
1926;BME280;964;42.606;23.588;2023-02-10T07:26:31;96192.63;;;29.75;10.53
1926;BME280;964;42.606;23.588;2023-02-10T07:28:58;96186.41;;;30.16;10.44
1926;BME280;964;42.606;23.588;2023-02-10T07:31:24;96179.78;;;31.02;10.19
1926;BME280;964;42.606;23.588;2023-02-10T07:33:51;96178.56;;;31.37;10.07
1926;BME280;964;42.606;23.588;2023-02-10T07:36:18;96177.97;;;31.77;10.29
1926;BME280;964;42.606;23.588;2023-02-10T07:38:46;96174.75;;;32.00;9.90
1926;BME280;964;42.606;23.588;2023-02-10T07:41:12;96182.22;;;30.24;10.81
1926;BME280;964;42.606;23.588;2023-02-10T07:43:39;96185.72;;;30.88;10.75
1926;BME280;964;42.606;23.588;2023-02-10T07:46:06;96183.69;;;30.54;10.71
1926;BME280;964;42.606;23.588;2023-02-10T07:48:32;96172.41;;;33.00;9.92
1926;BME280;964;42.606;23.588;2023-02-10T07:50:59;96167.25;;;33.29;9.78
1926;BME280;964;42.606;23.588;2023-02-10T07:53:26;96169.66;;;33.09;9.92
1926;BME280;964;42.606;23.588;2023-02-10T07:55:57;96180.47;;;31.28;10.48
1926;BME280;964;42.606;23.588;2023-02-10T07:58:24;96181.63;;;31.39;9.99
1926;BME280;964;42.606;23.588;2023-02-10T08:00:50;96193.25;;;30.96;10.42
1926;BME280;964;42.606;23.588;2023-02-10T08:03:17;96187.16;;;31.27;10.18
1926;BME280;964;42.606;23.588;2023-02-10T08:05:44;96188.13;;;31.33;10.54
1926;BME280;964;42.606;23.588;2023-02-10T08:08:12;96185.72;;;30.75;10.88
1926;BME280;964;42.606;23.588;2023-02-10T08:10:39;96186.13;;;31.33;10.45
1926;BME280;964;42.606;23.588;2023-02-10T08:13:08;96177.88;;;31.46;10.75
1926;BME280;964;42.606;23.588;2023-02-10T08:15:35;96181.53;;;30.96;10.53
1926;BME280;964;42.606;23.588;2023-02-10T08:18:01;96176.91;;;32.05;10.29
1926;BME280;964;42.606;23.588;2023-02-10T08:20:28;96167.97;;;32.14;10.42
1926;BME280;964;42.606;23.588;2023-02-10T08:22:55;96172.19;;;32.05;10.10
1926;BME280;964;42.606;23.588;2023-02-10T08:25:22;96179.31;;;31.16;10.18
1926;BME280;964;42.606;23.588;2023-02-10T08:27:49;96182.03;;;31.94;9.77
1926;BME280;964;42.606;23.588;2023-02-10T08:30:17;96172.59;;;32.56;9.76
1926;BME280;964;42.606;23.588;2023-02-10T08:32:44;96167.72;;;31.99;10.61
1926;BME280;964;42.606;23.588;2023-02-10T08:35:11;96174.31;;;32.32;9.84
1926;BME280;964;42.606;23.588;2023-02-10T08:37:37;96175.53;;;31.35;10.22
1926;BME280;964;42.606;23.588;2023-02-10T08:40:05;96183.19;;;31.40;10.52
1926;BME280;964;42.606;23.588;2023-02-10T08:42:32;96179.41;;;32.12;10.21
1926;BME280;964;42.606;23.588;2023-02-10T08:44:58;96180.63;;;31.89;9.97
1926;BME280;964;42.606;23.588;2023-02-10T08:47:27;96168.69;;;32.76;10.21
1926;BME280;964;42.606;23.588;2023-02-10T08:49:53;96174.50;;;31.85;10.62
1926;BME280;964;42.606;23.588;2023-02-10T08:52:21;96165.78;;;31.00;10.30
1926;BME280;964;42.606;23.588;2023-02-10T08:54:48;96170.16;;;31.97;10.20
1926;BME280;964;42.606;23.588;2023-02-10T08:57:15;96174.19;;;31.40;10.59
1926;BME280;964;42.606;23.588;2023-02-10T08:59:42;96175.59;;;30.63;11.19
1926;BME280;964;42.606;23.588;2023-02-10T09:02:09;96174.34;;;31.24;10.66
1926;BME280;964;42.606;23.588;2023-02-10T09:04:37;96171.09;;;31.16;10.87
1926;BME280;964;42.606;23.588;2023-02-10T09:07:04;96161.63;;;31.95;10.30
1926;BME280;964;42.606;23.588;2023-02-10T09:09:31;96167.38;;;31.66;10.58
1926;BME280;964;42.606;23.588;2023-02-10T09:12:03;96162.22;;;31.12;10.75
1926;BME280;964;42.606;23.588;2023-02-10T09:14:30;96160.00;;;32.37;10.37
1926;BME280;964;42.606;23.588;2023-02-10T09:16:57;96161.09;;;31.56;11.01
1926;BME280;964;42.606;23.588;2023-02-10T09:19:24;96158.81;;;32.47;10.77
1926;BME280;964;42.606;23.588;2023-02-10T09:21:52;96163.03;;;32.30;10.48
1926;BME280;964;42.606;23.588;2023-02-10T09:24:20;96158.91;;;31.73;10.94
1926;BME280;964;42.606;23.588;2023-02-10T09:26:47;96158.41;;;33.25;9.97
1926;BME280;964;42.606;23.588;2023-02-10T09:29:13;96156.53;;;33.59;10.02
1926;BME280;964;42.606;23.588;2023-02-10T09:31:40;96163.66;;;32.34;10.30
1926;BME280;964;42.606;23.588;2023-02-10T09:34:07;96148.47;;;32.51;10.20
1926;BME280;964;42.606;23.588;2023-02-10T09:36:34;96153.31;;;32.47;10.29
1926;BME280;964;42.606;23.588;2023-02-10T09:39:02;96149.38;;;33.25;10.54
1926;BME280;964;42.606;23.588;2023-02-10T09:41:39;96141.88;;;33.62;10.05
1926;BME280;964;42.606;23.588;2023-02-10T09:44:12;96138.66;;;32.81;10.37
1926;BME280;964;42.606;23.588;2023-02-10T09:46:58;96144.72;;;32.27;10.07
1926;BME280;964;42.606;23.588;2023-02-10T09:49:47;96149.13;;;31.07;11.01
1926;BME280;964;42.606;23.588;2023-02-10T09:52:26;96138.00;;;32.28;10.02
1926;BME280;964;42.606;23.588;2023-02-10T09:54:58;96132.84;;;32.88;9.76
1926;BME280;964;42.606;23.588;2023-02-10T09:57:32;96120.16;;;32.73;10.30
1926;BME280;964;42.606;23.588;2023-02-10T10:00:02;96123.25;;;32.04;10.88
1926;BME280;964;42.606;23.588;2023-02-10T10:02:32;96126.69;;;30.99;10.76
1926;BME280;964;42.606;23.588;2023-02-10T10:05:04;96112.03;;;31.15;11.49
1926;BME280;964;42.606;23.588;2023-02-10T10:07:43;96115.81;;;30.96;11.30
1926;BME280;964;42.606;23.588;2023-02-10T10:10:14;96114.34;;;31.38;10.93
1926;BME280;964;42.606;23.588;2023-02-10T10:12:43;96105.06;;;31.57;10.87
1926;BME280;964;42.606;23.588;2023-02-10T10:15:14;96095.47;;;32.64;10.21
1926;BME280;964;42.606;23.588;2023-02-10T10:17:55;96099.06;;;32.51;10.42
1926;BME280;964;42.606;23.588;2023-02-10T10:20:45;96094.56;;;31.87;10.53
1926;BME280;964;42.606;23.588;2023-02-10T10:23:32;96084.97;;;31.91;10.68
1926;BME280;964;42.606;23.588;2023-02-10T10:26:19;96087.22;;;32.91;10.42
1926;BME280;964;42.606;23.588;2023-02-10T10:29:00;96083.28;;;33.28;10.42
1926;BME280;964;42.606;23.588;2023-02-10T12:27:12;96016.63;;;22.75;16.09
1926;BME280;964;42.606;23.588;2023-02-10T12:29:47;95992.44;;;23.27;15.73
1926;BME280;964;42.606;23.588;2023-02-10T12:32:26;95983.72;;;24.90;15.11
1926;BME280;964;42.606;23.588;2023-02-10T12:35:04;95980.69;;;26.61;13.83
1926;BME280;964;42.606;23.588;2023-02-10T12:37:40;95985.84;;;26.75;13.70
1926;BME280;964;42.606;23.588;2023-02-10T12:40:30;95975.81;;;27.12;13.46
1926;BME280;964;42.606;23.588;2023-02-10T12:43:26;95964.81;;;28.48;12.94
1926;BME280;964;42.606;23.588;2023-02-10T12:45:58;95957.94;;;29.27;12.18
1926;BME280;964;42.606;23.588;2023-02-10T12:48:30;95960.88;;;28.49;12.18
1926;BME280;964;42.606;23.588;2023-02-10T12:51:10;95959.31;;;29.06;11.92
1926;BME280;964;42.606;23.588;2023-02-10T12:53:44;95963.97;;;29.85;11.85
1926;BME280;964;42.606;23.588;2023-02-10T12:56:15;95966.09;;;30.15;11.89
1926;BME280;964;42.606;23.588;2023-02-10T12:58:51;95960.63;;;30.15;11.74
1926;BME280;964;42.606;23.588;2023-02-10T13:01:24;95967.69;;;29.91;11.91
1926;BME280;964;42.606;23.588;2023-02-10T13:03:57;95965.25;;;30.05;12.18
1926;BME280;964;42.606;23.588;2023-02-10T13:06:32;95969.88;;;29.45;11.71
1926;BME280;964;42.606;23.588;2023-02-10T13:09:05;95974.78;;;28.84;12.25
1926;BME280;964;42.606;23.588;2023-02-10T13:11:40;95958.44;;;31.31;10.70
1926;BME280;964;42.606;23.588;2023-02-10T13:14:13;95961.41;;;30.72;11.22
1926;BME280;964;42.606;23.588;2023-02-10T13:16:50;95963.31;;;30.28;11.37
1926;BME280;964;42.606;23.588;2023-02-10T13:19:24;95962.16;;;31.86;10.54
1926;BME280;964;42.606;23.588;2023-02-10T13:21:58;95958.69;;;30.03;11.33
1926;BME280;964;42.606;23.588;2023-02-10T13:24:31;95958.28;;;30.60;10.89
1926;BME280;964;42.606;23.588;2023-02-10T13:27:13;95966.59;;;29.50;11.69
1926;BME280;964;42.606;23.588;2023-02-10T13:29:57;95956.16;;;30.08;11.29
1926;BME280;964;42.606;23.588;2023-02-10T13:32:36;95961.03;;;29.54;11.50
1926;BME280;964;42.606;23.588;2023-02-10T13:35:11;95959.38;;;30.85;10.75
1926;BME280;964;42.606;23.588;2023-02-10T13:37:41;95960.75;;;30.11;11.25
1926;BME280;964;42.606;23.588;2023-02-10T13:40:15;95955.16;;;30.15;11.34
1926;BME280;964;42.606;23.588;2023-02-10T13:42:48;95954.75;;;29.79;11.26
1926;BME280;964;42.606;23.588;2023-02-10T13:45:18;95949.59;;;28.92;11.70
1926;BME280;964;42.606;23.588;2023-02-10T13:47:51;95966.78;;;27.35;12.40
1926;BME280;964;42.606;23.588;2023-02-10T13:50:23;95970.66;;;25.12;13.82
1926;BME280;964;42.606;23.588;2023-02-10T13:52:53;95978.19;;;23.81;14.20
1926;BME280;964;42.606;23.588;2023-02-10T13:55:40;95986.50;;;22.77;14.91
1926;BME280;964;42.606;23.588;2023-02-10T13:58:31;95989.69;;;21.55;16.43
1926;BME280;964;42.606;23.588;2023-02-10T14:01:01;95986.63;;;21.57;16.75
1926;BME280;964;42.606;23.588;2023-02-10T14:03:29;95999.09;;;20.82;16.98
1926;BME280;964;42.606;23.588;2023-02-10T14:05:58;95994.09;;;20.80;16.78
1926;BME280;964;42.606;23.588;2023-02-10T14:08:29;95993.34;;;20.80;17.00
1926;BME280;964;42.606;23.588;2023-02-10T14:10:58;95994.19;;;21.09;16.87
1926;BME280;964;42.606;23.588;2023-02-10T14:13:27;95992.41;;;21.69;16.11
1926;BME280;964;42.606;23.588;2023-02-10T14:15:59;96001.25;;;21.56;16.22
1926;BME280;964;42.606;23.588;2023-02-10T14:18:28;96003.53;;;21.36;16.44
1926;BME280;964;42.606;23.588;2023-02-10T14:20:56;96001.56;;;20.36;16.86
1926;BME280;964;42.606;23.588;2023-02-10T14:23:25;95999.88;;;20.14;17.36
1926;BME280;964;42.606;23.588;2023-02-10T14:25:57;95996.53;;;21.14;16.28
1926;BME280;964;42.606;23.588;2023-02-10T14:28:28;95990.78;;;22.67;15.55
1926;BME280;964;42.606;23.588;2023-02-10T14:30:57;95981.50;;;24.44;14.75
1926;BME280;964;42.606;23.588;2023-02-10T14:33:28;95965.19;;;26.19;13.56
1926;BME280;964;42.606;23.588;2023-02-10T14:35:56;95964.31;;;27.04;13.17
1926;BME280;964;42.606;23.588;2023-02-10T14:38:26;95972.56;;;24.84;14.36
1926;BME280;964;42.606;23.588;2023-02-10T14:40:53;95983.38;;;22.82;15.62
1926;BME280;964;42.606;23.588;2023-02-10T14:43:24;95981.97;;;21.64;16.09
1926;BME280;964;42.606;23.588;2023-02-10T14:45:52;95983.50;;;21.44;16.83
1926;BME280;964;42.606;23.588;2023-02-10T14:48:21;95986.56;;;21.35;17.13
1926;BME280;964;42.606;23.588;2023-02-10T14:51:05;95979.94;;;21.04;17.35
1926;BME280;964;42.606;23.588;2023-02-10T14:53:35;95989.84;;;20.76;17.56
1926;BME280;964;42.606;23.588;2023-02-10T14:56:05;95977.31;;;21.15;17.57
1926;BME280;964;42.606;23.588;2023-02-10T14:58:32;95975.69;;;20.96;17.30
1926;BME280;964;42.606;23.588;2023-02-10T15:01:04;95984.94;;;20.27;17.94
1926;BME280;964;42.606;23.588;2023-02-10T15:03:32;95981.06;;;20.96;17.41
1926;BME280;964;42.606;23.588;2023-02-10T15:05:59;95974.88;;;20.92;18.12
1926;BME280;964;42.606;23.588;2023-02-10T15:08:39;95983.41;;;21.01;18.14
1926;BME280;964;42.606;23.588;2023-02-10T15:11:13;95988.59;;;20.59;18.55
1926;BME280;964;42.606;23.588;2023-02-10T15:13:44;95990.88;;;19.48;19.30
1926;BME280;964;42.606;23.588;2023-02-10T15:16:14;95996.94;;;18.71;19.33
1926;BME280;964;42.606;23.588;2023-02-10T15:18:44;95997.25;;;18.40;20.84
1926;BME280;964;42.606;23.588;2023-02-10T15:21:28;96001.19;;;18.46;20.17
1926;BME280;964;42.606;23.588;2023-02-10T15:23:59;96003.16;;;18.49;19.32
1926;BME280;964;42.606;23.588;2023-02-10T15:26:27;96001.88;;;18.69;19.86
1926;BME280;964;42.606;23.588;2023-02-10T15:29:04;96005.50;;;17.75;20.30
1926;BME280;964;42.606;23.588;2023-02-10T15:31:32;96004.09;;;17.81;20.21
1926;BME280;964;42.606;23.588;2023-02-10T15:34:00;96005.25;;;18.06;20.46
1926;BME280;964;42.606;23.588;2023-02-10T15:36:28;96015.28;;;17.64;20.33
1926;BME280;964;42.606;23.588;2023-02-10T15:39:03;96012.53;;;17.19;21.23
1926;BME280;964;42.606;23.588;2023-02-10T15:41:36;96014.81;;;16.97;21.41